createdAt,value
2018-07-05T00:00:02.923Z,21.60
2018-07-05T00:04:16.586Z,22.20
2018-07-05T00:08:30.149Z,22.50
2018-07-05T00:12:43.911Z,22.50
2018-07-05T00:16:57.472Z,22.50
2018-07-05T00:21:11.083Z,22.40
2018-07-05T00:25:24.601Z,22.00
2018-07-05T00:29:38.242Z,22.40
2018-07-05T00:33:51.859Z,22.50
2018-07-05T00:38:05.523Z,22.00
2018-07-05T00:42:19.420Z,22.10
2018-07-05T00:46:33.083Z,22.00
2018-07-05T00:50:46.873Z,21.80
2018-07-05T00:55:00.346Z,21.90
2018-07-05T00:59:13.827Z,21.80
2018-07-05T01:03:27.460Z,21.80
2018-07-05T01:07:41.019Z,21.80
2018-07-05T01:11:54.582Z,21.40
2018-07-05T01:16:08.854Z,21.60
2018-07-05T01:20:22.323Z,21.60
2018-07-05T01:24:35.996Z,21.70
2018-07-05T01:28:49.550Z,21.80
2018-07-05T01:33:03.123Z,21.80
2018-07-05T01:37:16.716Z,21.80
2018-07-05T01:41:30.461Z,21.50
2018-07-05T01:45:44.180Z,21.50
2018-07-05T01:49:57.660Z,20.90
2018-07-05T01:54:11.220Z,20.80
2018-07-05T01:58:24.635Z,21.30
2018-07-05T02:02:38.341Z,21.60
2018-07-05T02:06:51.826Z,21.60
2018-07-05T02:11:05.305Z,21.70
2018-07-05T02:15:19.181Z,21.40
2018-07-05T02:19:32.898Z,21.30
2018-07-05T02:23:46.609Z,21.30
2018-07-05T02:28:00.128Z,21.20
2018-07-05T02:32:13.698Z,21.10
2018-07-05T02:36:30.278Z,20.50
2018-07-05T02:40:43.859Z,20.90
2018-07-05T02:44:58.503Z,21.10
2018-07-05T02:49:12.020Z,21.30
2018-07-05T02:53:25.695Z,21.20
2018-07-05T02:57:39.280Z,21.20
2018-07-05T03:01:52.784Z,21.20
2018-07-05T03:06:06.562Z,21.20
2018-07-05T03:10:20.240Z,21.10
2018-07-05T03:14:33.823Z,21.00
2018-07-05T03:18:47.498Z,21.00
2018-07-05T03:23:01.027Z,21.00
2018-07-05T03:27:15.021Z,20.90
2018-07-05T03:31:28.814Z,20.90
2018-07-05T03:35:42.482Z,21.00
2018-07-05T03:39:56.319Z,21.10
2018-07-05T03:44:09.799Z,21.20
2018-07-05T03:48:23.620Z,21.20
2018-07-05T03:52:37.432Z,21.20
2018-07-05T03:56:50.964Z,20.70
2018-07-05T04:01:04.624Z,21.00
2018-07-05T04:05:18.242Z,21.30
2018-07-05T04:09:31.991Z,21.30
2018-07-05T04:13:45.622Z,21.40
2018-07-05T04:17:59.362Z,21.40
2018-07-05T04:22:13.011Z,21.20
2018-07-05T04:26:26.616Z,20.70
2018-07-05T04:30:40.111Z,21.60
2018-07-05T04:34:53.750Z,22.10
2018-07-05T04:39:07.313Z,22.30
2018-07-05T04:43:20.938Z,22.40
2018-07-05T04:47:34.582Z,22.50
2018-07-05T04:51:48.219Z,22.30
2018-07-05T04:56:01.979Z,22.80
2018-07-05T05:00:15.656Z,23.30
2018-07-05T05:04:29.284Z,23.40
2018-07-05T05:08:42.925Z,23.80
2018-07-05T05:12:56.593Z,24.10
2018-07-05T05:17:10.319Z,24.50
2018-07-05T05:21:23.890Z,24.80
2018-07-05T05:25:37.630Z,25.00
2018-07-05T05:29:51.160Z,25.40
2018-07-05T05:34:04.767Z,25.70
2018-07-05T05:38:18.534Z,26.20
2018-07-05T05:42:31.991Z,26.50
2018-07-05T05:46:45.532Z,26.80
2018-07-05T05:50:59.610Z,27.30
2018-07-05T05:55:13.122Z,28.50
2018-07-05T05:59:26.839Z,30.90
2018-07-05T06:03:40.592Z,33.00
2018-07-05T06:07:54.146Z,34.70
2018-07-05T06:12:07.751Z,36.40
2018-07-05T06:16:21.459Z,37.10
2018-07-05T06:20:35.549Z,38.00
2018-07-05T06:24:50.105Z,39.30
2018-07-05T06:29:03.928Z,40.70
2018-07-05T06:33:17.546Z,40.60
2018-07-05T06:37:31.635Z,40.20
2018-07-05T06:41:45.423Z,38.30
2018-07-05T06:45:59.128Z,36.20
2018-07-05T06:50:12.836Z,35.50
2018-07-05T06:54:26.442Z,35.20
2018-07-05T06:58:40.201Z,31.60
2018-07-05T07:02:54.011Z,31.90
2018-07-05T07:07:07.650Z,32.70
2018-07-05T07:11:21.259Z,31.40
2018-07-05T07:15:35.063Z,30.70
2018-07-05T07:19:48.758Z,30.40
2018-07-05T07:24:02.426Z,31.40
2018-07-05T07:28:15.961Z,31.90
2018-07-05T07:32:29.580Z,32.50
2018-07-05T07:36:43.266Z,30.60
2018-07-05T07:40:57.112Z,31.50
2018-07-05T07:44:58.238Z,32.60
2018-07-05T07:48:59.372Z,32.40
2018-07-05T07:53:00.532Z,33.70
2018-07-05T07:57:01.663Z,34.10
2018-07-05T08:01:03.116Z,32.40
2018-07-05T08:05:04.284Z,31.90
2018-07-05T08:09:05.673Z,31.70
2018-07-05T08:13:07.118Z,31.50
2018-07-05T08:17:08.262Z,31.50
2018-07-05T08:21:09.424Z,31.90
2018-07-05T08:25:10.556Z,32.00
2018-07-05T08:29:11.931Z,32.10
2018-07-05T08:33:13.134Z,32.20
2018-07-05T08:37:14.350Z,32.00
2018-07-05T08:41:15.460Z,32.40
2018-07-05T08:45:17.316Z,32.00
2018-07-05T08:49:18.856Z,33.10
2018-07-05T08:53:19.995Z,32.60
2018-07-05T08:57:21.375Z,32.60
2018-07-05T09:01:22.679Z,32.20
2018-07-05T09:05:23.846Z,31.80
2018-07-05T09:09:24.979Z,32.10
2018-07-05T09:13:26.123Z,32.00
2018-07-05T09:17:27.369Z,32.00
2018-07-05T09:21:28.413Z,32.40
2018-07-05T09:25:29.541Z,33.20
2018-07-05T09:29:30.673Z,33.80
2018-07-05T09:33:31.837Z,34.40
2018-07-05T09:37:33.704Z,34.40
2018-07-05T09:41:35.588Z,31.50
2018-07-05T09:45:36.723Z,32.80
2018-07-05T09:49:38.129Z,32.20
2018-07-05T09:53:39.276Z,32.50
2018-07-05T09:57:40.426Z,33.30
2018-07-05T10:01:41.575Z,33.60
2018-07-05T10:05:43.002Z,33.90
2018-07-05T10:09:45.452Z,33.50
2018-07-05T10:13:47.074Z,34.40
2018-07-05T10:17:48.458Z,35.20
2018-07-05T10:21:49.626Z,33.40
2018-07-05T10:25:50.762Z,34.40
2018-07-05T10:30:04.389Z,35.30
2018-07-05T10:34:05.536Z,34.00
2018-07-05T10:38:06.662Z,33.70
2018-07-05T10:42:20.285Z,33.70
2018-07-05T10:46:33.860Z,33.50
2018-07-05T10:50:47.430Z,34.10
2018-07-05T10:55:01.024Z,28.00
2018-07-05T10:59:14.607Z,19.40
2018-07-05T11:03:28.513Z,17.40
2018-07-05T11:07:42.096Z,18.10
2018-07-05T11:11:55.867Z,18.50
2018-07-05T11:16:10.304Z,18.90
2018-07-05T11:20:24.480Z,20.00
2018-07-05T11:24:38.240Z,22.00
2018-07-05T11:28:51.819Z,23.10
2018-07-05T11:33:05.699Z,23.90
2018-07-05T11:37:19.834Z,23.20
2018-07-05T11:41:33.611Z,22.70
2018-07-05T11:45:47.215Z,24.40
2018-07-05T11:50:01.810Z,21.90
2018-07-05T11:54:15.503Z,23.40
2018-07-05T11:58:29.357Z,23.00
2018-07-05T12:02:43.325Z,23.00
2018-07-05T12:06:57.777Z,22.70
2018-07-05T12:11:11.597Z,23.50
2018-07-05T12:15:25.386Z,24.50
2018-07-05T12:19:38.939Z,25.00
2018-07-05T12:23:52.637Z,23.70
2018-07-05T12:28:06.168Z,22.40
2018-07-05T12:32:19.914Z,23.50
2018-07-05T12:36:33.620Z,23.30
2018-07-05T12:40:47.480Z,24.40
2018-07-05T12:45:01.268Z,24.80
2018-07-05T12:49:14.995Z,23.90
2018-07-05T12:53:28.899Z,23.80
2018-07-05T12:57:42.579Z,23.70
2018-07-05T13:01:56.191Z,23.00
2018-07-05T13:06:09.716Z,21.60
2018-07-05T13:10:23.259Z,21.30
2018-07-05T13:14:36.874Z,22.20
2018-07-05T13:18:50.409Z,22.60
2018-07-05T13:23:03.910Z,21.10
2018-07-05T13:27:17.439Z,20.70
2018-07-05T13:31:31.248Z,20.90
2018-07-05T13:35:44.809Z,20.60
2018-07-05T13:39:58.713Z,20.40
2018-07-05T13:44:12.146Z,20.90
2018-07-05T13:48:25.941Z,20.80
2018-07-05T13:52:39.558Z,21.80
2018-07-05T13:56:53.233Z,21.70
2018-07-05T14:01:06.889Z,22.10
2018-07-05T14:05:20.629Z,22.00
2018-07-05T14:09:34.838Z,22.60
2018-07-05T14:13:48.618Z,22.10
2018-07-05T14:18:02.407Z,21.10
2018-07-05T14:22:16.763Z,21.80
2018-07-05T14:26:30.600Z,22.50
2018-07-05T14:30:44.439Z,22.80
2018-07-05T14:34:58.039Z,23.00
2018-07-05T14:39:11.681Z,22.70
2018-07-05T14:43:25.360Z,22.60
2018-07-05T14:47:39.064Z,22.20
2018-07-05T14:51:52.622Z,22.00
2018-07-05T14:56:06.420Z,22.20
2018-07-05T15:00:20.058Z,22.00
2018-07-05T15:04:33.739Z,22.40
2018-07-05T15:08:47.397Z,21.70
2018-07-05T15:13:01.136Z,21.40
2018-07-05T15:17:15.023Z,21.30
2018-07-05T15:21:28.798Z,21.80
2018-07-05T15:25:42.605Z,21.80
2018-07-05T15:29:56.316Z,22.30
2018-07-05T15:34:10.032Z,22.90
2018-07-05T15:38:23.808Z,23.40
2018-07-05T15:42:37.344Z,23.20
2018-07-05T15:46:51.109Z,23.00
2018-07-05T15:51:04.869Z,24.00
2018-07-05T15:55:18.530Z,23.80
2018-07-05T15:59:32.285Z,24.00
2018-07-05T16:03:46.019Z,23.30
2018-07-05T16:07:59.592Z,22.60
2018-07-05T16:12:13.203Z,22.60
2018-07-05T16:16:26.811Z,23.80
2018-07-05T16:20:40.612Z,23.40
2018-07-05T16:24:54.135Z,23.20
2018-07-05T16:29:07.730Z,22.20
2018-07-05T16:33:21.555Z,23.40
2018-07-05T16:37:35.180Z,23.90
2018-07-05T16:41:48.797Z,24.40
2018-07-05T16:46:02.497Z,24.30
2018-07-05T16:50:16.231Z,24.20
2018-07-05T16:54:29.878Z,25.10
2018-07-05T16:58:43.498Z,24.60
2018-07-05T17:02:57.146Z,24.60
2018-07-05T17:07:10.695Z,23.40
2018-07-05T17:11:24.522Z,24.30
2018-07-05T17:15:38.226Z,23.50
2018-07-05T17:19:51.928Z,23.70
2018-07-05T17:24:05.731Z,24.00
2018-07-05T17:28:19.415Z,23.70
2018-07-05T17:32:33.035Z,23.30
2018-07-05T17:36:46.751Z,23.60
2018-07-05T17:41:00.483Z,23.90
2018-07-05T17:45:14.042Z,24.80
2018-07-05T17:49:27.691Z,25.30
2018-07-05T17:53:41.604Z,25.60
2018-07-05T17:57:55.455Z,25.40
2018-07-05T18:02:09.146Z,25.80
2018-07-05T18:06:22.991Z,26.00
2018-07-05T18:10:36.560Z,25.70
2018-07-05T18:14:50.313Z,25.40
2018-07-05T18:19:03.906Z,25.30
2018-07-05T18:23:17.394Z,25.20
2018-07-05T18:27:31.389Z,24.30
2018-07-05T18:31:45.077Z,24.40
2018-07-05T18:35:58.932Z,24.90
2018-07-05T18:40:12.566Z,24.90
2018-07-05T18:44:26.106Z,24.50
2018-07-05T18:48:40.449Z,24.80
2018-07-05T18:52:54.029Z,25.00
2018-07-05T18:57:07.706Z,24.80
2018-07-05T19:01:21.418Z,25.00
2018-07-05T19:05:35.258Z,25.00
2018-07-05T19:09:49.329Z,25.20
2018-07-05T19:14:02.972Z,24.80
2018-07-05T19:18:16.730Z,24.80
2018-07-05T19:22:30.288Z,24.80
2018-07-05T19:26:43.949Z,24.60
2018-07-05T19:30:57.589Z,24.60
2018-07-05T19:35:11.208Z,24.40
2018-07-05T19:39:24.815Z,24.40
2018-07-05T19:43:38.748Z,24.30
2018-07-05T19:47:52.426Z,24.40
2018-07-05T19:52:06.137Z,24.40
2018-07-05T19:56:19.795Z,24.30
2018-07-05T20:00:33.600Z,24.40
2018-07-05T20:04:47.172Z,24.10
2018-07-05T20:09:00.796Z,23.60
2018-07-05T20:13:14.442Z,23.40
2018-07-05T20:17:28.269Z,23.50
2018-07-05T20:21:41.923Z,23.50
2018-07-05T20:25:55.889Z,23.70
2018-07-05T20:30:09.483Z,23.60
2018-07-05T20:34:23.098Z,23.40
2018-07-05T20:38:36.622Z,23.90
2018-07-05T20:42:50.684Z,24.00
2018-07-05T20:47:04.318Z,23.70
2018-07-05T20:51:18.247Z,24.00
2018-07-05T20:55:32.111Z,24.10
2018-07-05T20:59:45.999Z,23.90
2018-07-05T21:03:59.463Z,24.00
2018-07-05T21:08:13.071Z,24.20
2018-07-05T21:12:26.671Z,24.20
2018-07-05T21:16:40.404Z,24.10
2018-07-05T21:20:54.122Z,24.30
2018-07-05T21:25:07.792Z,24.40
2018-07-05T21:29:21.341Z,24.40
2018-07-05T21:33:35.101Z,24.40
2018-07-05T21:37:49.656Z,24.30
2018-07-05T21:42:03.456Z,24.00
2018-07-05T21:46:17.202Z,23.30
2018-07-05T21:50:30.894Z,23.20
2018-07-05T21:54:44.782Z,23.00
2018-07-05T21:58:58.412Z,23.20
2018-07-05T22:03:12.023Z,23.20
2018-07-05T22:07:25.623Z,23.10
2018-07-05T22:11:39.397Z,23.00
2018-07-05T22:15:53.199Z,23.00
2018-07-05T22:20:12.579Z,23.00
2018-07-05T22:24:32.052Z,23.00
2018-07-05T22:28:51.462Z,23.00
2018-07-05T22:33:05.351Z,23.00
2018-07-05T22:37:19.063Z,23.20
2018-07-05T22:41:32.762Z,22.80
2018-07-05T22:45:46.339Z,22.20
2018-07-05T22:49:59.999Z,22.70
2018-07-05T22:54:13.492Z,23.20
2018-07-05T22:58:27.430Z,23.40
2018-07-05T23:02:41.203Z,23.30
2018-07-05T23:06:55.133Z,23.10
2018-07-05T23:11:09.097Z,22.90
2018-07-05T23:15:22.639Z,23.10
2018-07-05T23:19:36.213Z,23.10
2018-07-05T23:23:49.832Z,23.10
2018-07-05T23:28:03.672Z,22.90
2018-07-05T23:32:17.498Z,22.80
2018-07-05T23:36:31.172Z,22.90
2018-07-05T23:40:44.838Z,22.90
2018-07-05T23:44:58.597Z,22.60
2018-07-05T23:49:12.315Z,22.90
2018-07-05T23:53:26.035Z,22.70
2018-07-05T23:57:39.571Z,22.50
